Terminal Aerodrome Forecast
Issued by NWS Topeka, KS

Home | Current Version | Previous Version | Graphics & Text | Print | Product List | Glossary On
Versions: 1 2 3 4 5 6 7 8 9 10 11 12 13 14 15 16 17 18
000
FTUS43 KTOP 191100
TAFTOP
TAF
KTOP 191123Z 1912/2012 01005KT P6SM SKC
     FM191500 04008KT P6SM BKN150
     FM200300 06010KT P6SM VCSH OVC050
     FM200800 04008KT 5SM -RA OVC010=

USA.gov is the U.S. government's official web portal to all federal, state and local government web resources and services.